Capitol Logistics 7473

Operating for MZN



KCLT
Charlotte/Douglas International Airport
Charlotte, North Carolina
KABE
Lehigh Valley International Airport
Allentown, Pennsylvania

Activity Log

Date Flight Route Aircraft Duration
04/18/2021 CPX7473 KRITR5 FILDS ILLSA COURG SCAPE V377 HAR V162 DUMMR B738 1h 24m

Route Details

Aircraft Information
Primary: Boeing 737-800BCF
Backup: Boeing 757-200SF
Route Data
Distance: 418nm
Duration: 1h 27m
Recm'd Route: KRITR5 FILDS ILLSA COURG SCAPE V377 HAR V162 DUMMR
Origin Wx: KCLT 020552Z 33006KT 9SM CLR 23/18 A2997 RMK AO2 SLP136 T02280183 10272 20217 51006
Dest. Wx: KABE 020551Z 26003KT 10SM CLR 14/13 A2988 RMK AO2 SLP119 60003 T01390133 10189 20139 51002 $
Notes: